sensor_id;sensor_type;location;lat;lon;timestamp;P1;durP1;ratioP1;P2;durP2;ratioP2
46110;SDS011;31849;55.992;37.252;2023-04-07T00:01:36;5.35;;;1.85;;
46110;SDS011;31849;55.992;37.252;2023-04-07T00:06:41;3.42;;;1.70;;
46110;SDS011;31849;55.992;37.252;2023-04-07T00:11:45;3.60;;;1.60;;
46110;SDS011;31849;55.992;37.252;2023-04-07T00:16:50;4.80;;;1.67;;
46110;SDS011;31849;55.992;37.252;2023-04-07T00:21:55;4.18;;;1.55;;
46110;SDS011;31849;55.992;37.252;2023-04-07T00:26:58;8.55;;;2.78;;
46110;SDS011;31849;55.992;37.252;2023-04-07T00:32:02;2.95;;;1.55;;
46110;SDS011;31849;55.992;37.252;2023-04-07T00:37:07;5.40;;;1.80;;
46110;SDS011;31849;55.992;37.252;2023-04-07T00:47:14;3.63;;;1.95;;
46110;SDS011;31849;55.992;37.252;2023-04-07T00:52:19;4.63;;;1.98;;
46110;SDS011;31849;55.992;37.252;2023-04-07T00:57:29;4.53;;;2.00;;
46110;SDS011;31849;55.992;37.252;2023-04-07T01:02:35;5.28;;;2.20;;
46110;SDS011;31849;55.992;37.252;2023-04-07T01:07:51;4.65;;;1.90;;
46110;SDS011;31849;55.992;37.252;2023-04-07T01:13:04;4.40;;;1.75;;
46110;SDS011;31849;55.992;37.252;2023-04-07T01:18:11;5.28;;;1.92;;
46110;SDS011;31849;55.992;37.252;2023-04-07T01:23:22;5.82;;;1.90;;
46110;SDS011;31849;55.992;37.252;2023-04-07T01:28:50;14.40;;;3.50;;
46110;SDS011;31849;55.992;37.252;2023-04-07T01:34:05;5.15;;;1.83;;
46110;SDS011;31849;55.992;37.252;2023-04-07T01:39:12;4.93;;;2.03;;
46110;SDS011;31849;55.992;37.252;2023-04-07T01:44:15;4.27;;;2.10;;
46110;SDS011;31849;55.992;37.252;2023-04-07T01:49:21;6.50;;;2.10;;
46110;SDS011;31849;55.992;37.252;2023-04-07T01:54:27;3.83;;;2.08;;
46110;SDS011;31849;55.992;37.252;2023-04-07T01:59:32;15.70;;;3.13;;
46110;SDS011;31849;55.992;37.252;2023-04-07T02:04:38;6.95;;;2.10;;
46110;SDS011;31849;55.992;37.252;2023-04-07T02:09:46;9.80;;;3.03;;
46110;SDS011;31849;55.992;37.252;2023-04-07T02:14:52;5.78;;;2.30;;
46110;SDS011;31849;55.992;37.252;2023-04-07T02:19:58;7.65;;;2.40;;
46110;SDS011;31849;55.992;37.252;2023-04-07T02:25:18;10.70;;;2.08;;
46110;SDS011;31849;55.992;37.252;2023-04-07T02:30:25;6.35;;;2.35;;
46110;SDS011;31849;55.992;37.252;2023-04-07T02:35:30;10.32;;;2.13;;
46110;SDS011;31849;55.992;37.252;2023-04-07T02:45:38;5.38;;;2.35;;
46110;SDS011;31849;55.992;37.252;2023-04-07T02:50:43;6.93;;;2.38;;
46110;SDS011;31849;55.992;37.252;2023-04-07T03:00:49;14.20;;;4.25;;
46110;SDS011;31849;55.992;37.252;2023-04-07T03:05:54;11.95;;;3.45;;
46110;SDS011;31849;55.992;37.252;2023-04-07T03:16:01;6.53;;;2.70;;
46110;SDS011;31849;55.992;37.252;2023-04-07T03:21:06;13.85;;;2.40;;
46110;SDS011;31849;55.992;37.252;2023-04-07T03:31:13;9.65;;;2.78;;
46110;SDS011;31849;55.992;37.252;2023-04-07T03:36:18;8.68;;;2.40;;
46110;SDS011;31849;55.992;37.252;2023-04-07T03:41:21;7.57;;;2.40;;
46110;SDS011;31849;55.992;37.252;2023-04-07T03:46:25;6.35;;;2.33;;
46110;SDS011;31849;55.992;37.252;2023-04-07T03:51:30;7.22;;;2.10;;
46110;SDS011;31849;55.992;37.252;2023-04-07T03:56:34;4.93;;;2.08;;
46110;SDS011;31849;55.992;37.252;2023-04-07T04:01:38;5.07;;;2.00;;
46110;SDS011;31849;55.992;37.252;2023-04-07T04:06:43;13.18;;;2.03;;
46110;SDS011;31849;55.992;37.252;2023-04-07T04:11:48;4.47;;;2.00;;
46110;SDS011;31849;55.992;37.252;2023-04-07T04:16:52;5.75;;;2.00;;
46110;SDS011;31849;55.992;37.252;2023-04-07T04:21:57;5.93;;;2.00;;
46110;SDS011;31849;55.992;37.252;2023-04-07T04:27:00;4.97;;;2.10;;
46110;SDS011;31849;55.992;37.252;2023-04-07T04:32:04;4.22;;;2.17;;
46110;SDS011;31849;55.992;37.252;2023-04-07T04:37:09;5.60;;;2.13;;
46110;SDS011;31849;55.992;37.252;2023-04-07T04:47:17;5.75;;;2.20;;
46110;SDS011;31849;55.992;37.252;2023-04-07T04:52:22;8.70;;;2.47;;
46110;SDS011;31849;55.992;37.252;2023-04-07T05:02:29;3.88;;;1.80;;
46110;SDS011;31849;55.992;37.252;2023-04-07T05:07:34;4.72;;;1.75;;
46110;SDS011;31849;55.992;37.252;2023-04-07T05:12:40;6.97;;;1.92;;
46110;SDS011;31849;55.992;37.252;2023-04-07T05:17:43;6.32;;;2.13;;
46110;SDS011;31849;55.992;37.252;2023-04-07T05:22:52;8.23;;;1.92;;
46110;SDS011;31849;55.992;37.252;2023-04-07T05:27:56;5.72;;;2.50;;
46110;SDS011;31849;55.992;37.252;2023-04-07T05:38:05;5.82;;;2.30;;
46110;SDS011;31849;55.992;37.252;2023-04-07T05:43:08;5.57;;;2.35;;
46110;SDS011;31849;55.992;37.252;2023-04-07T05:48:12;3.85;;;2.60;;
46110;SDS011;31849;55.992;37.252;2023-04-07T05:53:17;12.90;;;2.85;;
46110;SDS011;31849;55.992;37.252;2023-04-07T05:58:21;6.70;;;2.38;;
46110;SDS011;31849;55.992;37.252;2023-04-07T06:03:24;6.43;;;3.03;;
46110;SDS011;31849;55.992;37.252;2023-04-07T06:08:29;6.40;;;2.25;;
46110;SDS011;31849;55.992;37.252;2023-04-07T06:13:33;8.23;;;2.35;;
46110;SDS011;31849;55.992;37.252;2023-04-07T06:18:36;4.20;;;2.42;;
46110;SDS011;31849;55.992;37.252;2023-04-07T06:23:41;8.23;;;2.65;;
46110;SDS011;31849;55.992;37.252;2023-04-07T06:28:45;5.65;;;2.50;;
46110;SDS011;31849;55.992;37.252;2023-04-07T06:33:49;5.78;;;2.38;;
46110;SDS011;31849;55.992;37.252;2023-04-07T06:38:53;3.75;;;2.25;;
46110;SDS011;31849;55.992;37.252;2023-04-07T06:43:57;5.82;;;2.20;;
46110;SDS011;31849;55.992;37.252;2023-04-07T06:49:01;6.72;;;2.53;;
46110;SDS011;31849;55.992;37.252;2023-04-07T06:54:06;6.05;;;2.75;;
46110;SDS011;31849;55.992;37.252;2023-04-07T06:59:13;5.10;;;2.38;;
46110;SDS011;31849;55.992;37.252;2023-04-07T07:04:17;7.55;;;2.83;;
46110;SDS011;31849;55.992;37.252;2023-04-07T07:09:24;9.57;;;3.03;;
46110;SDS011;31849;55.992;37.252;2023-04-07T07:14:28;8.57;;;3.33;;
46110;SDS011;31849;55.992;37.252;2023-04-07T07:19:31;5.30;;;2.85;;
46110;SDS011;31849;55.992;37.252;2023-04-07T07:24:36;8.07;;;3.17;;
46110;SDS011;31849;55.992;37.252;2023-04-07T07:29:40;9.57;;;2.83;;
46110;SDS011;31849;55.992;37.252;2023-04-07T07:34:43;6.70;;;2.78;;
46110;SDS011;31849;55.992;37.252;2023-04-07T07:39:48;8.40;;;2.63;;
46110;SDS011;31849;55.992;37.252;2023-04-07T07:44:52;4.93;;;2.85;;
46110;SDS011;31849;55.992;37.252;2023-04-07T07:49:56;6.78;;;2.85;;
46110;SDS011;31849;55.992;37.252;2023-04-07T07:55:04;6.88;;;3.03;;
46110;SDS011;31849;55.992;37.252;2023-04-07T08:00:08;5.70;;;2.80;;
46110;SDS011;31849;55.992;37.252;2023-04-07T08:05:12;5.25;;;2.17;;
46110;SDS011;31849;55.992;37.252;2023-04-07T08:10:17;5.55;;;2.03;;
46110;SDS011;31849;55.992;37.252;2023-04-07T08:15:21;4.88;;;2.33;;
46110;SDS011;31849;55.992;37.252;2023-04-07T08:20:25;3.45;;;2.00;;
46110;SDS011;31849;55.992;37.252;2023-04-07T08:25:30;4.30;;;2.00;;
46110;SDS011;31849;55.992;37.252;2023-04-07T08:30:34;5.75;;;2.17;;
46110;SDS011;31849;55.992;37.252;2023-04-07T08:35:38;4.45;;;1.92;;
46110;SDS011;31849;55.992;37.252;2023-04-07T08:45:48;4.43;;;1.65;;
46110;SDS011;31849;55.992;37.252;2023-04-07T08:50:54;3.75;;;1.30;;
46110;SDS011;31849;55.992;37.252;2023-04-07T08:56:00;4.65;;;1.60;;
46110;SDS011;31849;55.992;37.252;2023-04-07T09:01:04;3.05;;;1.63;;
46110;SDS011;31849;55.992;37.252;2023-04-07T09:06:09;4.25;;;1.55;;
46110;SDS011;31849;55.992;37.252;2023-04-07T09:11:14;4.35;;;1.50;;
46110;SDS011;31849;55.992;37.252;2023-04-07T09:16:18;3.75;;;1.55;;
46110;SDS011;31849;55.992;37.252;2023-04-07T09:21:22;7.25;;;2.03;;
46110;SDS011;31849;55.992;37.252;2023-04-07T09:26:27;7.13;;;1.80;;
46110;SDS011;31849;55.992;37.252;2023-04-07T09:31:43;6.07;;;1.70;;
46110;SDS011;31849;55.992;37.252;2023-04-07T09:36:48;6.63;;;2.03;;
46110;SDS011;31849;55.992;37.252;2023-04-07T09:41:53;4.30;;;1.87;;
46110;SDS011;31849;55.992;37.252;2023-04-07T09:46:57;6.97;;;2.00;;
46110;SDS011;31849;55.992;37.252;2023-04-07T09:52:02;3.35;;;2.00;;
46110;SDS011;31849;55.992;37.252;2023-04-07T09:57:10;5.40;;;2.00;;
46110;SDS011;31849;55.992;37.252;2023-04-07T10:02:14;4.60;;;1.60;;
46110;SDS011;31849;55.992;37.252;2023-04-07T10:07:18;7.50;;;2.63;;
46110;SDS011;31849;55.992;37.252;2023-04-07T10:12:23;6.32;;;1.88;;
46110;SDS011;31849;55.992;37.252;2023-04-07T10:17:28;7.13;;;1.80;;
46110;SDS011;31849;55.992;37.252;2023-04-07T10:27:39;8.73;;;2.10;;
46110;SDS011;31849;55.992;37.252;2023-04-07T10:32:51;7.87;;;1.77;;
46110;SDS011;31849;55.992;37.252;2023-04-07T10:38:08;5.97;;;1.90;;
46110;SDS011;31849;55.992;37.252;2023-04-07T10:43:35;6.43;;;1.85;;
46110;SDS011;31849;55.992;37.252;2023-04-07T10:48:39;6.35;;;2.03;;
46110;SDS011;31849;55.992;37.252;2023-04-07T10:59:22;4.13;;;1.35;;
46110;SDS011;31849;55.992;37.252;2023-04-07T11:04:35;3.67;;;1.63;;
46110;SDS011;31849;55.992;37.252;2023-04-07T11:09:39;3.22;;;1.40;;
46110;SDS011;31849;55.992;37.252;2023-04-07T11:14:44;3.78;;;1.77;;
46110;SDS011;31849;55.992;37.252;2023-04-07T11:19:50;5.97;;;1.60;;
46110;SDS011;31849;55.992;37.252;2023-04-07T11:24:54;3.47;;;1.60;;
46110;SDS011;31849;55.992;37.252;2023-04-07T11:29:59;5.60;;;1.70;;
46110;SDS011;31849;55.992;37.252;2023-04-07T11:35:05;3.45;;;1.65;;
46110;SDS011;31849;55.992;37.252;2023-04-07T11:40:09;2.97;;;1.45;;
46110;SDS011;31849;55.992;37.252;2023-04-07T11:45:16;4.20;;;1.50;;
46110;SDS011;31849;55.992;37.252;2023-04-07T11:50:36;5.70;;;1.63;;
46110;SDS011;31849;55.992;37.252;2023-04-07T11:55:41;4.55;;;1.83;;
46110;SDS011;31849;55.992;37.252;2023-04-07T12:00:55;4.85;;;1.52;;
46110;SDS011;31849;55.992;37.252;2023-04-07T12:05:59;4.63;;;1.42;;
46110;SDS011;31849;55.992;37.252;2023-04-07T12:11:03;3.50;;;1.43;;
46110;SDS011;31849;55.992;37.252;2023-04-07T12:16:08;7.60;;;1.50;;
46110;SDS011;31849;55.992;37.252;2023-04-07T12:21:12;4.93;;;1.70;;
46110;SDS011;31849;55.992;37.252;2023-04-07T12:26:15;3.13;;;1.60;;
46110;SDS011;31849;55.992;37.252;2023-04-07T12:31:23;3.53;;;1.48;;
46110;SDS011;31849;55.992;37.252;2023-04-07T12:36:26;5.63;;;1.90;;
46110;SDS011;31849;55.992;37.252;2023-04-07T12:41:30;2.97;;;1.30;;
46110;SDS011;31849;55.992;37.252;2023-04-07T12:46:35;3.35;;;1.30;;
46110;SDS011;31849;55.992;37.252;2023-04-07T12:51:39;5.22;;;1.50;;
46110;SDS011;31849;55.992;37.252;2023-04-07T12:56:43;5.85;;;1.98;;
46110;SDS011;31849;55.992;37.252;2023-04-07T13:01:48;6.95;;;1.50;;
46110;SDS011;31849;55.992;37.252;2023-04-07T13:06:52;3.92;;;1.45;;
46110;SDS011;31849;55.992;37.252;2023-04-07T13:11:56;2.88;;;1.20;;
46110;SDS011;31849;55.992;37.252;2023-04-07T13:17:01;5.53;;;1.47;;
46110;SDS011;31849;55.992;37.252;2023-04-07T13:22:04;4.72;;;1.63;;
46110;SDS011;31849;55.992;37.252;2023-04-07T13:27:08;2.57;;;1.23;;
46110;SDS011;31849;55.992;37.252;2023-04-07T13:32:14;3.87;;;1.30;;
46110;SDS011;31849;55.992;37.252;2023-04-07T13:37:20;7.53;;;3.70;;
46110;SDS011;31849;55.992;37.252;2023-04-07T13:42:24;3.50;;;1.52;;
46110;SDS011;31849;55.992;37.252;2023-04-07T13:47:28;3.65;;;1.27;;
46110;SDS011;31849;55.992;37.252;2023-04-07T13:52:35;2.95;;;1.20;;
46110;SDS011;31849;55.992;37.252;2023-04-07T13:57:38;4.40;;;1.52;;
46110;SDS011;31849;55.992;37.252;2023-04-07T14:02:43;7.32;;;1.90;;
46110;SDS011;31849;55.992;37.252;2023-04-07T14:07:49;7.07;;;2.00;;
46110;SDS011;31849;55.992;37.252;2023-04-07T14:12:52;7.13;;;1.90;;
46110;SDS011;31849;55.992;37.252;2023-04-07T14:17:58;4.32;;;1.58;;
46110;SDS011;31849;55.992;37.252;2023-04-07T14:23:02;3.83;;;1.50;;
46110;SDS011;31849;55.992;37.252;2023-04-07T14:28:06;7.72;;;1.42;;
46110;SDS011;31849;55.992;37.252;2023-04-07T14:33:11;5.07;;;1.92;;
46110;SDS011;31849;55.992;37.252;2023-04-07T14:38:16;4.55;;;1.52;;
46110;SDS011;31849;55.992;37.252;2023-04-07T14:43:20;5.40;;;1.83;;
46110;SDS011;31849;55.992;37.252;2023-04-07T14:48:25;3.63;;;1.88;;
46110;SDS011;31849;55.992;37.252;2023-04-07T14:53:28;5.38;;;1.70;;
46110;SDS011;31849;55.992;37.252;2023-04-07T14:58:32;7.07;;;2.00;;
46110;SDS011;31849;55.992;37.252;2023-04-07T15:03:39;4.78;;;1.70;;
46110;SDS011;31849;55.992;37.252;2023-04-07T15:08:43;4.65;;;1.40;;
46110;SDS011;31849;55.992;37.252;2023-04-07T15:13:46;5.03;;;1.50;;
46110;SDS011;31849;55.992;37.252;2023-04-07T15:18:52;5.80;;;2.10;;
46110;SDS011;31849;55.992;37.252;2023-04-07T15:23:55;3.95;;;1.85;;
46110;SDS011;31849;55.992;37.252;2023-04-07T15:28:59;6.15;;;1.77;;
46110;SDS011;31849;55.992;37.252;2023-04-07T15:34:04;6.07;;;1.60;;
46110;SDS011;31849;55.992;37.252;2023-04-07T15:44:10;3.85;;;1.70;;
46110;SDS011;31849;55.992;37.252;2023-04-07T15:49:20;6.68;;;1.88;;
46110;SDS011;31849;55.992;37.252;2023-04-07T15:54:26;6.55;;;2.33;;
46110;SDS011;31849;55.992;37.252;2023-04-07T15:59:30;7.45;;;2.25;;
46110;SDS011;31849;55.992;37.252;2023-04-07T16:04:35;5.10;;;2.03;;
46110;SDS011;31849;55.992;37.252;2023-04-07T16:14:41;8.15;;;1.95;;
46110;SDS011;31849;55.992;37.252;2023-04-07T16:19:46;8.75;;;2.30;;
46110;SDS011;31849;55.992;37.252;2023-04-07T16:29:53;12.18;;;3.03;;
46110;SDS011;31849;55.992;37.252;2023-04-07T16:34:58;11.88;;;3.53;;
46110;SDS011;31849;55.992;37.252;2023-04-07T16:40:03;9.68;;;3.30;;
46110;SDS011;31849;55.992;37.252;2023-04-07T16:50:13;7.00;;;2.70;;
46110;SDS011;31849;55.992;37.252;2023-04-07T16:55:16;7.22;;;3.17;;
46110;SDS011;31849;55.992;37.252;2023-04-07T17:00:20;11.55;;;3.47;;
46110;SDS011;31849;55.992;37.252;2023-04-07T17:05:25;8.95;;;2.78;;
46110;SDS011;31849;55.992;37.252;2023-04-07T17:10:29;11.35;;;2.80;;
46110;SDS011;31849;55.992;37.252;2023-04-07T17:15:34;7.35;;;2.42;;
46110;SDS011;31849;55.992;37.252;2023-04-07T17:20:40;5.72;;;2.33;;
46110;SDS011;31849;55.992;37.252;2023-04-07T17:25:43;9.13;;;2.33;;
46110;SDS011;31849;55.992;37.252;2023-04-07T17:30:47;9.43;;;2.40;;
46110;SDS011;31849;55.992;37.252;2023-04-07T17:35:52;7.68;;;2.95;;
46110;SDS011;31849;55.992;37.252;2023-04-07T17:40:56;12.68;;;4.43;;
46110;SDS011;31849;55.992;37.252;2023-04-07T17:46:00;10.30;;;3.50;;
46110;SDS011;31849;55.992;37.252;2023-04-07T17:51:06;8.93;;;3.47;;
46110;SDS011;31849;55.992;37.252;2023-04-07T17:56:10;9.70;;;3.42;;
46110;SDS011;31849;55.992;37.252;2023-04-07T18:01:14;9.43;;;3.27;;
46110;SDS011;31849;55.992;37.252;2023-04-07T18:06:20;7.63;;;3.40;;
46110;SDS011;31849;55.992;37.252;2023-04-07T18:11:24;12.02;;;3.95;;
46110;SDS011;31849;55.992;37.252;2023-04-07T18:16:28;7.80;;;3.57;;
46110;SDS011;31849;55.992;37.252;2023-04-07T18:21:33;9.60;;;3.70;;
46110;SDS011;31849;55.992;37.252;2023-04-07T18:31:40;8.77;;;4.30;;
46110;SDS011;31849;55.992;37.252;2023-04-07T18:36:45;8.50;;;3.53;;
46110;SDS011;31849;55.992;37.252;2023-04-07T18:41:49;9.02;;;3.85;;
46110;SDS011;31849;55.992;37.252;2023-04-07T18:46:53;8.77;;;3.45;;
46110;SDS011;31849;55.992;37.252;2023-04-07T18:51:58;10.10;;;4.15;;
46110;SDS011;31849;55.992;37.252;2023-04-07T18:57:02;8.18;;;3.88;;
46110;SDS011;31849;55.992;37.252;2023-04-07T19:02:05;11.55;;;3.95;;
46110;SDS011;31849;55.992;37.252;2023-04-07T19:07:11;12.03;;;3.97;;
46110;SDS011;31849;55.992;37.252;2023-04-07T19:12:14;12.15;;;4.03;;
46110;SDS011;31849;55.992;37.252;2023-04-07T19:17:18;9.25;;;3.65;;
46110;SDS011;31849;55.992;37.252;2023-04-07T19:22:23;9.88;;;4.65;;
46110;SDS011;31849;55.992;37.252;2023-04-07T19:32:30;9.32;;;4.30;;
46110;SDS011;31849;55.992;37.252;2023-04-07T19:37:35;11.05;;;3.80;;
46110;SDS011;31849;55.992;37.252;2023-04-07T19:42:40;11.05;;;2.95;;
46110;SDS011;31849;55.992;37.252;2023-04-07T19:47:44;10.73;;;3.50;;
46110;SDS011;31849;55.992;37.252;2023-04-07T19:52:49;9.85;;;3.15;;
46110;SDS011;31849;55.992;37.252;2023-04-07T19:57:54;8.30;;;3.28;;
46110;SDS011;31849;55.992;37.252;2023-04-07T20:02:57;9.45;;;3.97;;
46110;SDS011;31849;55.992;37.252;2023-04-07T20:08:02;12.93;;;4.93;;
46110;SDS011;31849;55.992;37.252;2023-04-07T20:13:07;13.82;;;5.00;;
46110;SDS011;31849;55.992;37.252;2023-04-07T20:18:11;10.85;;;3.95;;
46110;SDS011;31849;55.992;37.252;2023-04-07T20:23:18;10.55;;;4.00;;
46110;SDS011;31849;55.992;37.252;2023-04-07T20:28:22;7.93;;;3.80;;
46110;SDS011;31849;55.992;37.252;2023-04-07T20:33:26;16.10;;;4.28;;
46110;SDS011;31849;55.992;37.252;2023-04-07T20:38:31;15.32;;;3.53;;
46110;SDS011;31849;55.992;37.252;2023-04-07T20:43:35;10.43;;;3.88;;
46110;SDS011;31849;55.992;37.252;2023-04-07T20:48:38;13.27;;;4.50;;
46110;SDS011;31849;55.992;37.252;2023-04-07T20:53:43;9.43;;;3.25;;
46110;SDS011;31849;55.992;37.252;2023-04-07T20:58:47;6.75;;;3.20;;
46110;SDS011;31849;55.992;37.252;2023-04-07T21:03:51;11.33;;;3.60;;
46110;SDS011;31849;55.992;37.252;2023-04-07T21:08:57;13.88;;;3.85;;
46110;SDS011;31849;55.992;37.252;2023-04-07T21:19:03;10.07;;;3.50;;
46110;SDS011;31849;55.992;37.252;2023-04-07T21:24:08;10.13;;;3.53;;
46110;SDS011;31849;55.992;37.252;2023-04-07T21:34:15;9.80;;;3.53;;
46110;SDS011;31849;55.992;37.252;2023-04-07T21:39:20;8.15;;;3.47;;
46110;SDS011;31849;55.992;37.252;2023-04-07T21:49:26;10.95;;;4.55;;
46110;SDS011;31849;55.992;37.252;2023-04-07T21:54:31;9.43;;;4.10;;
46110;SDS011;31849;55.992;37.252;2023-04-07T22:04:38;11.02;;;4.53;;
46110;SDS011;31849;55.992;37.252;2023-04-07T22:09:43;10.98;;;4.50;;
46110;SDS011;31849;55.992;37.252;2023-04-07T22:14:47;17.42;;;4.40;;
46110;SDS011;31849;55.992;37.252;2023-04-07T22:19:51;9.35;;;4.10;;
46110;SDS011;31849;55.992;37.252;2023-04-07T22:24:56;10.77;;;4.30;;
46110;SDS011;31849;55.992;37.252;2023-04-07T22:35:04;9.55;;;3.90;;
46110;SDS011;31849;55.992;37.252;2023-04-07T22:40:09;11.55;;;3.80;;
46110;SDS011;31849;55.992;37.252;2023-04-07T22:45:14;10.07;;;3.67;;
46110;SDS011;31849;55.992;37.252;2023-04-07T22:50:17;7.50;;;3.78;;
46110;SDS011;31849;55.992;37.252;2023-04-07T22:55:22;7.55;;;3.50;;
46110;SDS011;31849;55.992;37.252;2023-04-07T23:00:26;11.77;;;3.85;;
46110;SDS011;31849;55.992;37.252;2023-04-07T23:05:29;9.55;;;4.07;;
46110;SDS011;31849;55.992;37.252;2023-04-07T23:10:34;16.98;;;4.50;;
46110;SDS011;31849;55.992;37.252;2023-04-07T23:20:47;10.98;;;3.78;;
46110;SDS011;31849;55.992;37.252;2023-04-07T23:25:54;11.23;;;3.58;;
46110;SDS011;31849;55.992;37.252;2023-04-07T23:36:00;10.07;;;4.57;;
46110;SDS011;31849;55.992;37.252;2023-04-07T23:41:05;10.27;;;3.58;;
46110;SDS011;31849;55.992;37.252;2023-04-07T23:46:09;10.40;;;4.25;;
46110;SDS011;31849;55.992;37.252;2023-04-07T23:51:13;12.95;;;4.25;;
46110;SDS011;31849;55.992;37.252;2023-04-07T23:56:18;10.45;;;4.53;;
